sensor_id;sensor_type;location;lat;lon;timestamp;P1;durP1;ratioP1;P2;durP2;ratioP2
76896;SDS011;65856;52.178;21.176;2024-03-08T00:00:40;93.30;;;39.90;;
76896;SDS011;65856;52.178;21.176;2024-03-08T00:03:07;92.30;;;38.20;;
76896;SDS011;65856;52.178;21.176;2024-03-08T00:05:35;94.20;;;38.80;;
76896;SDS011;65856;52.178;21.176;2024-03-08T00:08:04;88.00;;;36.00;;
76896;SDS011;65856;52.178;21.176;2024-03-08T00:10:30;83.90;;;35.50;;
76896;SDS011;65856;52.178;21.176;2024-03-08T00:12:55;74.30;;;33.80;;
76896;SDS011;65856;52.178;21.176;2024-03-08T00:15:22;78.40;;;34.80;;
76896;SDS011;65856;52.178;21.176;2024-03-08T00:17:48;82.40;;;33.90;;
76896;SDS011;65856;52.178;21.176;2024-03-08T00:20:14;78.90;;;33.10;;
76896;SDS011;65856;52.178;21.176;2024-03-08T00:22:39;79.40;;;34.40;;
76896;SDS011;65856;52.178;21.176;2024-03-08T00:25:06;73.30;;;33.50;;
76896;SDS011;65856;52.178;21.176;2024-03-08T00:27:36;80.50;;;33.60;;
76896;SDS011;65856;52.178;21.176;2024-03-08T00:30:02;75.70;;;33.70;;
76896;SDS011;65856;52.178;21.176;2024-03-08T00:32:28;69.20;;;31.60;;
76896;SDS011;65856;52.178;21.176;2024-03-08T00:34:54;78.60;;;32.50;;
76896;SDS011;65856;52.178;21.176;2024-03-08T00:37:22;70.50;;;30.60;;
76896;SDS011;65856;52.178;21.176;2024-03-08T00:39:49;78.30;;;32.20;;
76896;SDS011;65856;52.178;21.176;2024-03-08T00:42:18;90.70;;;37.20;;
76896;SDS011;65856;52.178;21.176;2024-03-08T00:44:44;72.60;;;32.30;;
76896;SDS011;65856;52.178;21.176;2024-03-08T00:47:10;66.10;;;29.90;;
76896;SDS011;65856;52.178;21.176;2024-03-08T00:49:36;71.60;;;30.90;;
76896;SDS011;65856;52.178;21.176;2024-03-08T00:52:05;86.50;;;35.70;;
76896;SDS011;65856;52.178;21.176;2024-03-08T00:54:36;94.10;;;38.30;;
76896;SDS011;65856;52.178;21.176;2024-03-08T00:57:02;91.50;;;39.20;;
76896;SDS011;65856;52.178;21.176;2024-03-08T00:59:28;86.30;;;36.90;;
76896;SDS011;65856;52.178;21.176;2024-03-08T01:01:54;83.50;;;35.40;;
76896;SDS011;65856;52.178;21.176;2024-03-08T01:04:20;84.50;;;33.30;;
76896;SDS011;65856;52.178;21.176;2024-03-08T01:06:46;76.30;;;32.00;;
76896;SDS011;65856;52.178;21.176;2024-03-08T01:09:13;75.60;;;32.80;;
76896;SDS011;65856;52.178;21.176;2024-03-08T01:11:38;75.00;;;32.70;;
76896;SDS011;65856;52.178;21.176;2024-03-08T01:14:05;71.90;;;31.70;;
76896;SDS011;65856;52.178;21.176;2024-03-08T01:16:30;71.80;;;32.00;;
76896;SDS011;65856;52.178;21.176;2024-03-08T01:18:58;76.20;;;33.00;;
76896;SDS011;65856;52.178;21.176;2024-03-08T01:21:24;81.20;;;33.40;;
76896;SDS011;65856;52.178;21.176;2024-03-08T01:23:49;74.80;;;32.40;;
76896;SDS011;65856;52.178;21.176;2024-03-08T01:26:14;82.30;;;32.50;;
76896;SDS011;65856;52.178;21.176;2024-03-08T01:28:40;77.00;;;32.10;;
76896;SDS011;65856;52.178;21.176;2024-03-08T01:31:05;72.00;;;31.70;;
76896;SDS011;65856;52.178;21.176;2024-03-08T01:33:31;76.30;;;32.10;;
76896;SDS011;65856;52.178;21.176;2024-03-08T01:35:57;72.90;;;32.60;;
76896;SDS011;65856;52.178;21.176;2024-03-08T01:38:22;72.40;;;31.20;;
76896;SDS011;65856;52.178;21.176;2024-03-08T01:40:48;62.30;;;27.70;;
76896;SDS011;65856;52.178;21.176;2024-03-08T01:43:27;68.80;;;30.40;;
76896;SDS011;65856;52.178;21.176;2024-03-08T01:45:55;69.80;;;29.90;;
76896;SDS011;65856;52.178;21.176;2024-03-08T01:48:24;73.40;;;31.30;;
76896;SDS011;65856;52.178;21.176;2024-03-08T01:50:50;67.70;;;30.30;;
76896;SDS011;65856;52.178;21.176;2024-03-08T01:53:18;68.40;;;30.70;;
76896;SDS011;65856;52.178;21.176;2024-03-08T01:55:46;70.00;;;31.00;;
76896;SDS011;65856;52.178;21.176;2024-03-08T01:58:13;72.10;;;32.00;;
76896;SDS011;65856;52.178;21.176;2024-03-08T02:00:46;71.00;;;30.10;;
76896;SDS011;65856;52.178;21.176;2024-03-08T02:03:17;82.50;;;34.20;;
76896;SDS011;65856;52.178;21.176;2024-03-08T02:05:43;73.50;;;33.40;;
76896;SDS011;65856;52.178;21.176;2024-03-08T02:08:09;69.20;;;30.90;;
76896;SDS011;65856;52.178;21.176;2024-03-08T02:10:44;72.90;;;30.80;;
76896;SDS011;65856;52.178;21.176;2024-03-08T02:13:10;66.70;;;31.50;;
76896;SDS011;65856;52.178;21.176;2024-03-08T02:15:58;79.20;;;32.90;;
76896;SDS011;65856;52.178;21.176;2024-03-08T02:18:25;79.50;;;32.90;;
76896;SDS011;65856;52.178;21.176;2024-03-08T02:20:54;79.30;;;32.70;;
76896;SDS011;65856;52.178;21.176;2024-03-08T02:23:20;74.20;;;31.00;;
76896;SDS011;65856;52.178;21.176;2024-03-08T02:25:47;76.40;;;32.00;;
76896;SDS011;65856;52.178;21.176;2024-03-08T02:28:13;75.20;;;31.20;;
76896;SDS011;65856;52.178;21.176;2024-03-08T02:30:39;73.60;;;30.60;;
76896;SDS011;65856;52.178;21.176;2024-03-08T02:33:05;78.90;;;33.60;;
76896;SDS011;65856;52.178;21.176;2024-03-08T02:35:32;78.40;;;32.70;;
76896;SDS011;65856;52.178;21.176;2024-03-08T02:37:58;84.50;;;33.70;;
76896;SDS011;65856;52.178;21.176;2024-03-08T02:40:28;73.10;;;31.40;;
76896;SDS011;65856;52.178;21.176;2024-03-08T02:42:54;75.00;;;31.90;;
76896;SDS011;65856;52.178;21.176;2024-03-08T02:45:19;74.70;;;31.90;;
76896;SDS011;65856;52.178;21.176;2024-03-08T02:47:45;71.10;;;31.10;;
76896;SDS011;65856;52.178;21.176;2024-03-08T02:50:11;75.70;;;31.40;;
76896;SDS011;65856;52.178;21.176;2024-03-08T02:52:37;73.10;;;31.80;;
76896;SDS011;65856;52.178;21.176;2024-03-08T02:55:02;77.30;;;32.30;;
76896;SDS011;65856;52.178;21.176;2024-03-08T02:57:28;86.10;;;34.00;;
76896;SDS011;65856;52.178;21.176;2024-03-08T02:59:54;79.00;;;33.90;;
76896;SDS011;65856;52.178;21.176;2024-03-08T03:02:19;85.20;;;32.90;;
76896;SDS011;65856;52.178;21.176;2024-03-08T03:04:45;80.50;;;33.30;;
76896;SDS011;65856;52.178;21.176;2024-03-08T03:07:10;73.80;;;31.20;;
76896;SDS011;65856;52.178;21.176;2024-03-08T03:09:36;84.00;;;34.30;;
76896;SDS011;65856;52.178;21.176;2024-03-08T03:12:02;89.30;;;36.60;;
76896;SDS011;65856;52.178;21.176;2024-03-08T03:14:27;88.60;;;35.80;;
76896;SDS011;65856;52.178;21.176;2024-03-08T03:16:53;78.20;;;34.20;;
76896;SDS011;65856;52.178;21.176;2024-03-08T03:19:19;80.50;;;33.30;;
76896;SDS011;65856;52.178;21.176;2024-03-08T03:21:45;80.80;;;34.80;;
76896;SDS011;65856;52.178;21.176;2024-03-08T03:24:11;91.10;;;37.00;;
76896;SDS011;65856;52.178;21.176;2024-03-08T03:26:38;91.10;;;35.90;;
76896;SDS011;65856;52.178;21.176;2024-03-08T03:29:07;80.80;;;35.30;;
76896;SDS011;65856;52.178;21.176;2024-03-08T03:31:34;77.60;;;34.00;;
76896;SDS011;65856;52.178;21.176;2024-03-08T03:34:01;90.70;;;36.50;;
76896;SDS011;65856;52.178;21.176;2024-03-08T03:36:29;82.10;;;35.80;;
76896;SDS011;65856;52.178;21.176;2024-03-08T03:38:55;88.30;;;36.60;;
76896;SDS011;65856;52.178;21.176;2024-03-08T03:41:34;94.40;;;37.70;;
76896;SDS011;65856;52.178;21.176;2024-03-08T03:44:00;87.10;;;36.30;;
76896;SDS011;65856;52.178;21.176;2024-03-08T03:46:25;92.50;;;38.60;;
76896;SDS011;65856;52.178;21.176;2024-03-08T03:48:53;95.40;;;39.00;;
76896;SDS011;65856;52.178;21.176;2024-03-08T03:51:20;96.20;;;38.30;;
76896;SDS011;65856;52.178;21.176;2024-03-08T03:53:46;89.40;;;38.50;;
76896;SDS011;65856;52.178;21.176;2024-03-08T03:56:12;97.30;;;38.00;;
76896;SDS011;65856;52.178;21.176;2024-03-08T03:58:37;87.60;;;35.90;;
76896;SDS011;65856;52.178;21.176;2024-03-08T04:01:04;88.80;;;35.40;;
76896;SDS011;65856;52.178;21.176;2024-03-08T04:03:30;88.10;;;35.60;;
76896;SDS011;65856;52.178;21.176;2024-03-08T04:05:55;85.10;;;35.60;;
76896;SDS011;65856;52.178;21.176;2024-03-08T04:08:21;80.70;;;34.90;;
76896;SDS011;65856;52.178;21.176;2024-03-08T04:10:46;79.00;;;33.60;;
76896;SDS011;65856;52.178;21.176;2024-03-08T04:13:11;80.70;;;34.20;;
76896;SDS011;65856;52.178;21.176;2024-03-08T04:15:37;79.00;;;34.10;;
76896;SDS011;65856;52.178;21.176;2024-03-08T04:18:03;75.20;;;33.70;;
76896;SDS011;65856;52.178;21.176;2024-03-08T04:20:29;87.80;;;35.30;;
76896;SDS011;65856;52.178;21.176;2024-03-08T04:22:55;84.80;;;32.50;;
76896;SDS011;65856;52.178;21.176;2024-03-08T04:25:21;79.20;;;33.90;;
76896;SDS011;65856;52.178;21.176;2024-03-08T04:27:46;90.50;;;33.30;;
76896;SDS011;65856;52.178;21.176;2024-03-08T04:30:13;78.70;;;33.90;;
76896;SDS011;65856;52.178;21.176;2024-03-08T04:32:39;88.40;;;35.40;;
76896;SDS011;65856;52.178;21.176;2024-03-08T04:35:06;86.00;;;34.60;;
76896;SDS011;65856;52.178;21.176;2024-03-08T04:37:33;84.00;;;34.90;;
76896;SDS011;65856;52.178;21.176;2024-03-08T04:39:59;88.00;;;35.30;;
76896;SDS011;65856;52.178;21.176;2024-03-08T04:42:26;110.10;;;39.80;;
76896;SDS011;65856;52.178;21.176;2024-03-08T04:44:52;119.60;;;41.20;;
76896;SDS011;65856;52.178;21.176;2024-03-08T04:47:18;101.10;;;38.60;;
76896;SDS011;65856;52.178;21.176;2024-03-08T04:49:44;101.30;;;38.90;;
76896;SDS011;65856;52.178;21.176;2024-03-08T04:52:09;100.60;;;38.20;;
76896;SDS011;65856;52.178;21.176;2024-03-08T04:54:35;103.40;;;37.80;;
76896;SDS011;65856;52.178;21.176;2024-03-08T04:57:00;104.30;;;39.10;;
76896;SDS011;65856;52.178;21.176;2024-03-08T04:59:26;99.70;;;37.40;;
76896;SDS011;65856;52.178;21.176;2024-03-08T05:01:52;95.20;;;37.60;;
76896;SDS011;65856;52.178;21.176;2024-03-08T05:04:18;100.10;;;38.30;;
76896;SDS011;65856;52.178;21.176;2024-03-08T05:06:43;93.00;;;37.70;;
76896;SDS011;65856;52.178;21.176;2024-03-08T05:09:09;92.10;;;35.80;;
76896;SDS011;65856;52.178;21.176;2024-03-08T05:11:44;87.30;;;33.80;;
76896;SDS011;65856;52.178;21.176;2024-03-08T05:14:11;89.40;;;37.10;;
76896;SDS011;65856;52.178;21.176;2024-03-08T05:16:48;88.20;;;34.70;;
76896;SDS011;65856;52.178;21.176;2024-03-08T05:19:14;87.20;;;34.40;;
76896;SDS011;65856;52.178;21.176;2024-03-08T05:21:42;84.30;;;33.60;;
76896;SDS011;65856;52.178;21.176;2024-03-08T05:24:09;82.80;;;33.90;;
76896;SDS011;65856;52.178;21.176;2024-03-08T05:26:35;88.20;;;35.00;;
76896;SDS011;65856;52.178;21.176;2024-03-08T05:29:02;81.80;;;33.90;;
76896;SDS011;65856;52.178;21.176;2024-03-08T05:31:28;91.40;;;36.50;;
76896;SDS011;65856;52.178;21.176;2024-03-08T05:33:56;88.80;;;37.30;;
76896;SDS011;65856;52.178;21.176;2024-03-08T05:36:22;93.70;;;37.20;;
76896;SDS011;65856;52.178;21.176;2024-03-08T05:38:47;99.20;;;37.90;;
76896;SDS011;65856;52.178;21.176;2024-03-08T05:41:15;97.90;;;39.00;;
76896;SDS011;65856;52.178;21.176;2024-03-08T05:43:41;89.60;;;37.00;;
76896;SDS011;65856;52.178;21.176;2024-03-08T05:46:07;90.90;;;36.80;;
76896;SDS011;65856;52.178;21.176;2024-03-08T05:48:32;96.20;;;37.00;;
76896;SDS011;65856;52.178;21.176;2024-03-08T05:50:59;108.00;;;42.30;;
76896;SDS011;65856;52.178;21.176;2024-03-08T05:53:25;81.80;;;36.70;;
76896;SDS011;65856;52.178;21.176;2024-03-08T05:55:51;94.10;;;38.10;;
76896;SDS011;65856;52.178;21.176;2024-03-08T05:58:17;90.20;;;36.70;;
76896;SDS011;65856;52.178;21.176;2024-03-08T06:00:42;98.30;;;38.30;;
76896;SDS011;65856;52.178;21.176;2024-03-08T06:03:08;101.80;;;40.90;;
76896;SDS011;65856;52.178;21.176;2024-03-08T06:05:33;102.40;;;40.40;;
76896;SDS011;65856;52.178;21.176;2024-03-08T06:07:58;102.80;;;40.30;;
76896;SDS011;65856;52.178;21.176;2024-03-08T06:10:24;98.20;;;40.70;;
76896;SDS011;65856;52.178;21.176;2024-03-08T06:12:49;99.20;;;41.40;;
76896;SDS011;65856;52.178;21.176;2024-03-08T06:15:16;106.10;;;41.20;;
76896;SDS011;65856;52.178;21.176;2024-03-08T06:17:42;103.90;;;40.90;;
76896;SDS011;65856;52.178;21.176;2024-03-08T06:20:07;98.80;;;40.10;;
76896;SDS011;65856;52.178;21.176;2024-03-08T06:22:38;101.50;;;41.70;;
76896;SDS011;65856;52.178;21.176;2024-03-08T06:25:08;98.50;;;38.20;;
76896;SDS011;65856;52.178;21.176;2024-03-08T06:27:33;90.00;;;35.90;;
76896;SDS011;65856;52.178;21.176;2024-03-08T06:30:00;89.80;;;37.90;;
76896;SDS011;65856;52.178;21.176;2024-03-08T06:32:25;89.50;;;35.40;;
76896;SDS011;65856;52.178;21.176;2024-03-08T06:34:51;93.60;;;37.30;;
76896;SDS011;65856;52.178;21.176;2024-03-08T06:37:16;91.70;;;37.50;;
76896;SDS011;65856;52.178;21.176;2024-03-08T06:39:47;126.00;;;43.90;;
76896;SDS011;65856;52.178;21.176;2024-03-08T06:42:13;135.50;;;50.00;;
76896;SDS011;65856;52.178;21.176;2024-03-08T06:44:39;136.30;;;50.70;;
76896;SDS011;65856;52.178;21.176;2024-03-08T06:47:14;134.40;;;48.80;;
76896;SDS011;65856;52.178;21.176;2024-03-08T06:49:40;141.60;;;48.70;;
76896;SDS011;65856;52.178;21.176;2024-03-08T06:52:06;127.60;;;47.80;;
76896;SDS011;65856;52.178;21.176;2024-03-08T06:54:34;117.20;;;44.50;;
76896;SDS011;65856;52.178;21.176;2024-03-08T06:57:04;107.60;;;40.50;;
76896;SDS011;65856;52.178;21.176;2024-03-08T06:59:33;105.60;;;39.80;;
76896;SDS011;65856;52.178;21.176;2024-03-08T07:02:01;114.30;;;42.00;;
76896;SDS011;65856;52.178;21.176;2024-03-08T07:04:27;103.90;;;43.50;;
76896;SDS011;65856;52.178;21.176;2024-03-08T07:06:55;107.10;;;45.00;;
76896;SDS011;65856;52.178;21.176;2024-03-08T07:09:22;117.20;;;45.80;;
76896;SDS011;65856;52.178;21.176;2024-03-08T07:11:50;122.50;;;48.90;;
76896;SDS011;65856;52.178;21.176;2024-03-08T07:14:21;121.20;;;47.00;;
76896;SDS011;65856;52.178;21.176;2024-03-08T07:16:47;105.80;;;44.90;;
76896;SDS011;65856;52.178;21.176;2024-03-08T07:19:12;114.30;;;44.60;;
76896;SDS011;65856;52.178;21.176;2024-03-08T07:21:38;98.70;;;44.40;;
76896;SDS011;65856;52.178;21.176;2024-03-08T07:24:04;94.30;;;42.10;;
76896;SDS011;65856;52.178;21.176;2024-03-08T07:26:47;92.90;;;39.90;;
76896;SDS011;65856;52.178;21.176;2024-03-08T07:29:15;100.50;;;39.90;;
76896;SDS011;65856;52.178;21.176;2024-03-08T07:31:41;86.20;;;38.10;;
76896;SDS011;65856;52.178;21.176;2024-03-08T07:34:06;95.60;;;40.70;;
76896;SDS011;65856;52.178;21.176;2024-03-08T07:36:36;82.30;;;35.60;;
76896;SDS011;65856;52.178;21.176;2024-03-08T07:39:01;83.10;;;37.20;;
76896;SDS011;65856;52.178;21.176;2024-03-08T07:41:27;92.30;;;39.70;;
76896;SDS011;65856;52.178;21.176;2024-03-08T07:43:55;92.10;;;40.90;;
76896;SDS011;65856;52.178;21.176;2024-03-08T07:46:20;90.20;;;41.70;;
76896;SDS011;65856;52.178;21.176;2024-03-08T07:48:45;91.40;;;41.90;;
76896;SDS011;65856;52.178;21.176;2024-03-08T07:51:11;77.40;;;37.00;;
76896;SDS011;65856;52.178;21.176;2024-03-08T07:53:37;78.00;;;37.60;;
76896;SDS011;65856;52.178;21.176;2024-03-08T07:56:04;72.10;;;35.00;;
76896;SDS011;65856;52.178;21.176;2024-03-08T07:58:34;80.90;;;35.40;;
76896;SDS011;65856;52.178;21.176;2024-03-08T08:00:59;75.70;;;35.50;;
76896;SDS011;65856;52.178;21.176;2024-03-08T08:03:25;80.10;;;38.30;;
76896;SDS011;65856;52.178;21.176;2024-03-08T08:05:52;90.00;;;40.40;;
76896;SDS011;65856;52.178;21.176;2024-03-08T08:08:18;81.70;;;39.50;;
76896;SDS011;65856;52.178;21.176;2024-03-08T08:10:44;77.60;;;36.70;;
76896;SDS011;65856;52.178;21.176;2024-03-08T08:13:09;78.10;;;35.60;;
76896;SDS011;65856;52.178;21.176;2024-03-08T08:15:34;84.90;;;36.80;;
76896;SDS011;65856;52.178;21.176;2024-03-08T08:18:00;70.20;;;34.50;;
76896;SDS011;65856;52.178;21.176;2024-03-08T08:20:25;77.80;;;35.80;;
76896;SDS011;65856;52.178;21.176;2024-03-08T08:22:53;72.90;;;36.60;;
76896;SDS011;65856;52.178;21.176;2024-03-08T08:25:20;72.20;;;35.10;;
76896;SDS011;65856;52.178;21.176;2024-03-08T08:27:46;64.80;;;32.00;;
76896;SDS011;65856;52.178;21.176;2024-03-08T08:30:12;65.50;;;33.50;;
76896;SDS011;65856;52.178;21.176;2024-03-08T08:32:39;66.90;;;34.00;;
76896;SDS011;65856;52.178;21.176;2024-03-08T08:35:05;68.10;;;31.70;;
76896;SDS011;65856;52.178;21.176;2024-03-08T08:37:33;65.80;;;31.00;;
76896;SDS011;65856;52.178;21.176;2024-03-08T08:40:01;64.90;;;30.40;;
76896;SDS011;65856;52.178;21.176;2024-03-08T08:42:30;64.90;;;31.10;;
76896;SDS011;65856;52.178;21.176;2024-03-08T08:44:56;61.40;;;30.40;;
76896;SDS011;65856;52.178;21.176;2024-03-08T08:47:23;60.00;;;30.10;;
76896;SDS011;65856;52.178;21.176;2024-03-08T08:49:48;57.10;;;29.50;;
76896;SDS011;65856;52.178;21.176;2024-03-08T08:52:16;61.40;;;29.90;;
76896;SDS011;65856;52.178;21.176;2024-03-08T08:54:42;59.20;;;29.00;;
76896;SDS011;65856;52.178;21.176;2024-03-08T08:57:09;58.40;;;29.30;;
76896;SDS011;65856;52.178;21.176;2024-03-08T08:59:35;48.70;;;23.90;;
76896;SDS011;65856;52.178;21.176;2024-03-08T09:02:06;37.10;;;17.90;;
76896;SDS011;65856;52.178;21.176;2024-03-08T09:04:32;35.70;;;18.00;;
76896;SDS011;65856;52.178;21.176;2024-03-08T09:06:57;34.40;;;18.40;;
76896;SDS011;65856;52.178;21.176;2024-03-08T09:09:23;37.00;;;18.60;;
76896;SDS011;65856;52.178;21.176;2024-03-08T09:11:50;35.90;;;19.80;;
76896;SDS011;65856;52.178;21.176;2024-03-08T09:14:16;32.40;;;18.40;;
76896;SDS011;65856;52.178;21.176;2024-03-08T09:16:42;29.70;;;16.20;;
76896;SDS011;65856;52.178;21.176;2024-03-08T09:19:07;29.70;;;15.80;;
76896;SDS011;65856;52.178;21.176;2024-03-08T09:21:33;22.30;;;13.50;;
76896;SDS011;65856;52.178;21.176;2024-03-08T09:24:00;23.40;;;12.70;;
76896;SDS011;65856;52.178;21.176;2024-03-08T09:26:26;20.70;;;12.00;;
76896;SDS011;65856;52.178;21.176;2024-03-08T09:28:52;23.30;;;12.60;;
76896;SDS011;65856;52.178;21.176;2024-03-08T09:31:17;25.50;;;13.40;;
76896;SDS011;65856;52.178;21.176;2024-03-08T09:33:43;22.90;;;12.90;;
76896;SDS011;65856;52.178;21.176;2024-03-08T09:36:08;24.90;;;13.40;;
76896;SDS011;65856;52.178;21.176;2024-03-08T09:38:33;23.00;;;12.70;;
76896;SDS011;65856;52.178;21.176;2024-03-08T09:41:02;23.90;;;13.50;;
76896;SDS011;65856;52.178;21.176;2024-03-08T09:43:29;21.20;;;12.80;;
76896;SDS011;65856;52.178;21.176;2024-03-08T09:45:56;21.60;;;13.10;;
76896;SDS011;65856;52.178;21.176;2024-03-08T09:48:23;22.20;;;13.50;;
76896;SDS011;65856;52.178;21.176;2024-03-08T09:50:48;22.90;;;11.70;;
76896;SDS011;65856;52.178;21.176;2024-03-08T09:53:14;21.80;;;11.50;;
76896;SDS011;65856;52.178;21.176;2024-03-08T09:55:40;20.10;;;11.80;;
76896;SDS011;65856;52.178;21.176;2024-03-08T09:58:12;19.40;;;11.80;;
76896;SDS011;65856;52.178;21.176;2024-03-08T10:00:52;23.00;;;12.10;;
76896;SDS011;65856;52.178;21.176;2024-03-08T10:03:19;20.60;;;11.60;;
76896;SDS011;65856;52.178;21.176;2024-03-08T10:05:45;21.80;;;12.70;;
76896;SDS011;65856;52.178;21.176;2024-03-08T10:08:11;24.90;;;13.90;;
76896;SDS011;65856;52.178;21.176;2024-03-08T10:10:38;31.00;;;13.00;;
76896;SDS011;65856;52.178;21.176;2024-03-08T10:13:06;29.30;;;13.60;;
76896;SDS011;65856;52.178;21.176;2024-03-08T10:15:32;24.00;;;13.50;;
76896;SDS011;65856;52.178;21.176;2024-03-08T10:18:01;24.20;;;14.10;;
76896;SDS011;65856;52.178;21.176;2024-03-08T10:20:28;22.00;;;12.70;;
76896;SDS011;65856;52.178;21.176;2024-03-08T10:22:59;22.40;;;12.00;;
76896;SDS011;65856;52.178;21.176;2024-03-08T10:25:25;23.40;;;12.20;;
76896;SDS011;65856;52.178;21.176;2024-03-08T10:27:51;21.60;;;11.60;;
76896;SDS011;65856;52.178;21.176;2024-03-08T10:30:16;19.10;;;11.00;;
76896;SDS011;65856;52.178;21.176;2024-03-08T10:32:47;22.40;;;11.80;;
76896;SDS011;65856;52.178;21.176;2024-03-08T10:35:13;18.80;;;11.20;;
76896;SDS011;65856;52.178;21.176;2024-03-08T10:40:19;22.00;;;11.40;;
76896;SDS011;65856;52.178;21.176;2024-03-08T10:42:58;22.80;;;12.80;;
76896;SDS011;65856;52.178;21.176;2024-03-08T10:45:37;20.80;;;11.70;;
76896;SDS011;65856;52.178;21.176;2024-03-08T10:48:26;20.90;;;12.70;;
76896;SDS011;65856;52.178;21.176;2024-03-08T10:51:00;24.00;;;12.60;;
76896;SDS011;65856;52.178;21.176;2024-03-08T10:53:28;18.70;;;11.70;;
76896;SDS011;65856;52.178;21.176;2024-03-08T10:55:57;21.80;;;11.50;;
76896;SDS011;65856;52.178;21.176;2024-03-08T10:58:25;23.20;;;11.80;;
76896;SDS011;65856;52.178;21.176;2024-03-08T11:00:55;21.20;;;11.80;;
76896;SDS011;65856;52.178;21.176;2024-03-08T11:06:08;28.70;;;11.50;;
76896;SDS011;65856;52.178;21.176;2024-03-08T11:08:41;21.90;;;11.50;;
76896;SDS011;65856;52.178;21.176;2024-03-08T11:11:30;23.10;;;11.40;;
76896;SDS011;65856;52.178;21.176;2024-03-08T11:13:58;21.80;;;11.90;;
76896;SDS011;65856;52.178;21.176;2024-03-08T11:19:00;21.30;;;11.90;;
76896;SDS011;65856;52.178;21.176;2024-03-08T11:21:36;19.30;;;11.40;;
76896;SDS011;65856;52.178;21.176;2024-03-08T11:24:09;20.20;;;11.30;;
76896;SDS011;65856;52.178;21.176;2024-03-08T11:26:37;23.40;;;11.40;;
76896;SDS011;65856;52.178;21.176;2024-03-08T11:32:19;17.50;;;11.10;;
76896;SDS011;65856;52.178;21.176;2024-03-08T11:34:48;21.50;;;11.00;;
76896;SDS011;65856;52.178;21.176;2024-03-08T11:37:20;23.00;;;11.40;;
76896;SDS011;65856;52.178;21.176;2024-03-08T11:39:54;18.10;;;10.90;;
76896;SDS011;65856;52.178;21.176;2024-03-08T11:42:25;21.00;;;10.10;;
76896;SDS011;65856;52.178;21.176;2024-03-08T11:44:53;20.00;;;10.00;;
76896;SDS011;65856;52.178;21.176;2024-03-08T11:47:20;22.20;;;10.40;;
76896;SDS011;65856;52.178;21.176;2024-03-08T11:49:46;21.90;;;11.30;;
76896;SDS011;65856;52.178;21.176;2024-03-08T11:52:14;19.70;;;10.90;;
76896;SDS011;65856;52.178;21.176;2024-03-08T11:54:54;18.40;;;10.00;;
76896;SDS011;65856;52.178;21.176;2024-03-08T11:57:22;18.60;;;10.30;;
76896;SDS011;65856;52.178;21.176;2024-03-08T11:59:55;20.90;;;10.30;;
76896;SDS011;65856;52.178;21.176;2024-03-08T12:02:31;16.60;;;10.50;;
76896;SDS011;65856;52.178;21.176;2024-03-08T12:05:00;20.70;;;10.00;;
76896;SDS011;65856;52.178;21.176;2024-03-08T12:07:30;20.80;;;10.20;;
76896;SDS011;65856;52.178;21.176;2024-03-08T12:10:21;23.60;;;10.70;;
76896;SDS011;65856;52.178;21.176;2024-03-08T12:12:49;18.40;;;9.70;;
76896;SDS011;65856;52.178;21.176;2024-03-08T12:15:17;19.20;;;10.50;;
76896;SDS011;65856;52.178;21.176;2024-03-08T12:17:44;21.90;;;9.60;;
76896;SDS011;65856;52.178;21.176;2024-03-08T12:20:33;16.80;;;10.00;;
76896;SDS011;65856;52.178;21.176;2024-03-08T12:22:59;16.10;;;9.10;;
76896;SDS011;65856;52.178;21.176;2024-03-08T12:25:33;17.30;;;9.40;;
76896;SDS011;65856;52.178;21.176;2024-03-08T12:28:08;19.20;;;9.80;;
76896;SDS011;65856;52.178;21.176;2024-03-08T12:30:49;22.10;;;9.40;;
76896;SDS011;65856;52.178;21.176;2024-03-08T12:33:17;18.20;;;9.70;;
76896;SDS011;65856;52.178;21.176;2024-03-08T12:35:53;15.20;;;9.00;;
76896;SDS011;65856;52.178;21.176;2024-03-08T12:38:21;18.90;;;9.90;;
76896;SDS011;65856;52.178;21.176;2024-03-08T12:40:58;19.30;;;9.90;;
76896;SDS011;65856;52.178;21.176;2024-03-08T12:43:24;18.40;;;10.20;;
76896;SDS011;65856;52.178;21.176;2024-03-08T12:45:49;17.40;;;9.80;;
76896;SDS011;65856;52.178;21.176;2024-03-08T12:48:15;17.70;;;9.60;;
76896;SDS011;65856;52.178;21.176;2024-03-08T12:50:41;19.90;;;9.70;;
76896;SDS011;65856;52.178;21.176;2024-03-08T12:53:10;16.20;;;9.50;;
76896;SDS011;65856;52.178;21.176;2024-03-08T12:55:36;20.50;;;9.50;;
76896;SDS011;65856;52.178;21.176;2024-03-08T12:58:02;17.10;;;9.60;;
76896;SDS011;65856;52.178;21.176;2024-03-08T13:00:27;22.00;;;10.30;;
76896;SDS011;65856;52.178;21.176;2024-03-08T13:02:53;19.90;;;9.50;;
76896;SDS011;65856;52.178;21.176;2024-03-08T13:05:19;20.40;;;10.40;;
76896;SDS011;65856;52.178;21.176;2024-03-08T13:07:45;16.90;;;9.20;;
76896;SDS011;65856;52.178;21.176;2024-03-08T13:10:12;17.50;;;9.50;;
76896;SDS011;65856;52.178;21.176;2024-03-08T13:12:42;19.30;;;10.50;;
76896;SDS011;65856;52.178;21.176;2024-03-08T13:15:08;17.60;;;9.60;;
76896;SDS011;65856;52.178;21.176;2024-03-08T13:17:37;17.50;;;9.30;;
76896;SDS011;65856;52.178;21.176;2024-03-08T13:20:06;17.00;;;9.50;;
76896;SDS011;65856;52.178;21.176;2024-03-08T13:22:32;19.20;;;9.80;;
76896;SDS011;65856;52.178;21.176;2024-03-08T13:24:58;17.30;;;9.90;;
76896;SDS011;65856;52.178;21.176;2024-03-08T13:27:29;17.50;;;9.60;;
76896;SDS011;65856;52.178;21.176;2024-03-08T13:29:54;21.20;;;10.50;;
76896;SDS011;65856;52.178;21.176;2024-03-08T13:32:20;17.70;;;9.90;;
76896;SDS011;65856;52.178;21.176;2024-03-08T13:34:49;20.70;;;10.70;;
76896;SDS011;65856;52.178;21.176;2024-03-08T13:37:16;20.40;;;10.00;;
76896;SDS011;65856;52.178;21.176;2024-03-08T13:39:42;17.80;;;9.20;;
76896;SDS011;65856;52.178;21.176;2024-03-08T13:42:15;16.80;;;9.60;;
76896;SDS011;65856;52.178;21.176;2024-03-08T13:44:45;21.30;;;9.90;;
76896;SDS011;65856;52.178;21.176;2024-03-08T13:47:13;19.90;;;9.70;;
76896;SDS011;65856;52.178;21.176;2024-03-08T13:49:39;17.40;;;9.10;;
76896;SDS011;65856;52.178;21.176;2024-03-08T13:52:05;16.20;;;9.30;;
76896;SDS011;65856;52.178;21.176;2024-03-08T13:54:31;22.60;;;9.50;;
76896;SDS011;65856;52.178;21.176;2024-03-08T13:56:57;19.00;;;9.60;;
76896;SDS011;65856;52.178;21.176;2024-03-08T13:59:23;19.10;;;10.00;;
76896;SDS011;65856;52.178;21.176;2024-03-08T14:01:50;18.50;;;10.00;;
76896;SDS011;65856;52.178;21.176;2024-03-08T14:04:16;19.10;;;9.10;;
76896;SDS011;65856;52.178;21.176;2024-03-08T14:06:44;19.20;;;9.20;;
76896;SDS011;65856;52.178;21.176;2024-03-08T14:09:13;16.40;;;9.00;;
76896;SDS011;65856;52.178;21.176;2024-03-08T14:11:43;23.00;;;10.20;;
76896;SDS011;65856;52.178;21.176;2024-03-08T14:14:10;19.40;;;10.20;;
76896;SDS011;65856;52.178;21.176;2024-03-08T14:16:38;16.70;;;9.00;;
76896;SDS011;65856;52.178;21.176;2024-03-08T14:19:04;18.40;;;9.70;;
76896;SDS011;65856;52.178;21.176;2024-03-08T14:21:31;20.60;;;9.30;;